Time;durP1;ratioP1;P1;durP2;ratioP2;P2;SDS_P1;SDS_P2;PMS_P1;PMS_P2;Temp;Humidity;BMP_temperature;BMP_pressure;BME280_temperature;BME280_humidity;BME280_pressure;Samples;Min_cycle;Max_cycle;Signal;HPM_P1;HPM_P2
2022/10/27 00:04:31;;;;;;;3.88;2.08;;;;;;;11.79;100.00;99242.06;15267218;19;20021;-57
2022/10/27 00:09:56;;;;;;;5.03;2.08;;;;;;;11.78;100.00;99252.00;15262635;19;20347;-55
2022/10/27 00:15:21;;;;;;;7.18;2.30;;;;;;;11.76;100.00;99254.00;15268645;19;20019;-56
2022/10/27 00:20:48;;;;;;;4.55;2.08;;;;;;;11.78;100.00;99251.16;15250120;19;20082;-55
2022/10/27 00:26:15;;;;;;;7.20;2.20;;;;;;;11.78;100.00;99252.00;15268903;19;20017;-55
2022/10/27 00:31:39;;;;;;;4.68;2.30;;;;;;;11.77;100.00;99249.47;15261679;19;20041;-56
2022/10/27 00:37:13;;;;;;;5.78;2.40;;;;;;;11.77;100.00;99257.56;15274959;19;20018;-55
2022/10/27 00:42:38;;;;;;;4.88;2.30;;;;;;;11.76;100.00;99263.94;15280037;19;20030;-57
2022/10/27 00:48:02;;;;;;;8.52;3.20;;;;;;;11.75;100.00;99264.94;15280002;19;20014;-60
2022/10/27 00:53:30;;;;;;;5.47;2.58;;;;;;;11.74;100.00;99277.63;15267366;19;20017;-53
2022/10/27 00:58:55;;;;;;;7.97;2.72;;;;;;;11.76;100.00;99286.38;15277159;19;20091;-54
2022/10/27 01:04:27;;;;;;;5.72;2.72;;;;;;;11.78;100.00;99299.75;15278269;19;20110;-52
2022/10/27 01:09:55;;;;;;;5.13;2.40;;;;;;;11.78;100.00;99305.16;15274978;19;20021;-56
2022/10/27 01:15:20;;;;;;;5.45;2.53;;;;;;;11.78;100.00;99300.59;15279718;19;20037;-51
2022/10/27 01:21:17;;;;;;;5.78;2.50;;;;;;;11.77;100.00;99298.88;15269457;19;20094;-57
2022/10/27 01:26:51;;;;;;;7.85;2.67;;;;;;;11.75;100.00;99310.84;15273906;19;20046;-59
2022/10/27 01:32:30;;;;;;;6.88;2.38;;;;;;;11.74;100.00;99306.44;15274007;19;20014;-57
2022/10/27 01:38:04;;;;;;;7.85;2.40;;;;;;;11.70;100.00;99314.00;15275871;19;20024;-55
2022/10/27 01:43:32;;;;;;;7.20;2.53;;;;;;;11.67;100.00;99308.88;15275625;19;20037;-56
2022/10/27 01:49:00;;;;;;;4.85;2.17;;;;;;;11.66;100.00;99315.25;15274548;19;20114;-56
2022/10/27 01:54:26;;;;;;;7.32;2.70;;;;;;;11.64;100.00;99310.03;15265836;19;20025;-55
2022/10/27 02:00:05;;;;;;;6.03;2.70;;;;;;;11.62;100.00;99303.91;15272443;19;20376;-56
2022/10/27 02:05:42;;;;;;;6.03;2.55;;;;;;;11.60;100.00;99314.00;15276658;19;20018;-58
2022/10/27 02:11:09;;;;;;;7.75;3.00;;;;;;;11.62;100.00;99322.81;15271654;19;20022;-53
2022/10/27 02:16:37;;;;;;;4.60;2.50;;;;;;;11.59;100.00;99325.78;15274640;19;20373;-57
2022/10/27 02:22:06;;;;;;;7.47;2.72;;;;;;;11.56;100.00;99328.81;15272776;19;20030;-57
2022/10/27 02:27:39;;;;;;;4.93;2.67;;;;;;;11.54;100.00;99331.63;15260438;19;20025;-51
2022/10/27 02:33:04;;;;;;;6.13;2.90;;;;;;;11.54;100.00;99342.44;15269169;19;20030;-53
2022/10/27 02:38:31;;;;;;;4.70;2.45;;;;;;;11.53;100.00;99340.72;15271280;19;20027;-52
2022/10/27 02:43:56;;;;;;;5.18;2.35;;;;;;;11.52;100.00;99332.78;15272686;19;20023;-59
2022/10/27 02:49:20;;;;;;;5.40;2.78;;;;;;;11.48;100.00;99331.34;15271714;19;20018;-55
2022/10/27 02:54:48;;;;;;;5.03;2.95;;;;;;;11.42;100.00;99330.09;15270122;19;20031;-58
2022/10/27 03:00:14;;;;;;;6.25;2.50;;;;;;;11.37;100.00;99330.53;15255804;19;20025;-52
2022/10/27 03:05:39;;;;;;;6.88;2.88;;;;;;;11.35;100.00;99327.09;15271658;19;20361;-56
2022/10/27 03:11:08;;;;;;;7.45;3.50;;;;;;;11.36;100.00;99327.97;15267184;19;20017;-56
2022/10/27 03:16:33;;;;;;;7.80;3.38;;;;;;;11.33;100.00;99339.06;15270855;19;20090;-55
2022/10/27 03:21:59;;;;;;;6.88;3.50;;;;;;;11.29;100.00;99330.41;15265903;19;20114;-57
2022/10/27 03:27:27;;;;;;;6.88;3.70;;;;;;;11.32;100.00;99334.66;15269601;19;20014;-54
2022/10/27 03:32:54;;;;;;;7.30;3.50;;;;;;;11.28;100.00;99339.50;15254330;19;20018;-53
2022/10/27 03:38:20;;;;;;;9.50;3.92;;;;;;;11.25;100.00;99339.75;15265043;19;20022;-53
2022/10/27 03:43:47;;;;;;;6.55;3.63;;;;;;;11.22;100.00;99334.69;15267843;19;20018;-59
2022/10/27 03:49:12;;;;;;;6.65;3.70;;;;;;;11.20;100.00;99344.75;15266351;19;20026;-57
2022/10/27 03:54:37;;;;;;;8.20;4.10;;;;;;;11.18;100.00;99350.28;15263858;19;20024;-59
2022/10/27 04:00:05;;;;;;;9.60;4.18;;;;;;;11.17;100.00;99356.66;15263315;19;20029;-57
2022/10/27 04:05:29;;;;;;;8.52;4.10;;;;;;;11.14;100.00;99351.56;15254642;19;20025;-58
2022/10/27 04:10:54;;;;;;;6.93;3.90;;;;;;;11.12;100.00;99361.63;15273749;19;20035;-58
2022/10/27 04:16:21;;;;;;;8.30;4.10;;;;;;;11.07;100.00;99364.75;15282998;19;20014;-53
2022/10/27 04:21:46;;;;;;;7.97;3.80;;;;;;;11.00;100.00;99371.69;15282331;19;20031;-57
2022/10/27 04:27:10;;;;;;;8.13;3.20;;;;;;;10.92;100.00;99371.56;15281309;19;20022;-55
2022/10/27 04:32:37;;;;;;;6.35;2.95;;;;;;;10.82;100.00;99365.31;15275621;19;20453;-55
2022/10/27 04:38:02;;;;;;;4.40;2.10;;;;;;;10.71;100.00;99366.25;15267336;19;20029;-55
2022/10/27 04:43:27;;;;;;;12.48;2.22;;;;;;;10.59;100.00;99362.84;15279807;19;20385;-58
2022/10/27 04:48:54;;;;;;;33.15;3.22;;;;;;;10.41;100.00;99360.81;15279214;19;20477;-51
2022/10/27 04:54:19;;;;;;;4.20;3.10;;;;;;;10.33;100.00;99357.91;15274120;19;20022;-58
2022/10/27 04:59:43;;;;;;;6.13;3.17;;;;;;;10.27;100.00;99358.47;15276334;19;20019;-56
2022/10/27 05:05:11;;;;;;;4.70;2.95;;;;;;;10.21;100.00;99362.56;15279687;19;20026;-54
2022/10/27 05:10:36;;;;;;;6.65;3.28;;;;;;;10.21;100.00;99369.78;15259939;19;20015;-54
2022/10/27 05:16:01;;;;;;;8.32;4.80;;;;;;;10.25;100.00;99379.31;15277159;19;20018;-54
2022/10/27 05:21:28;;;;;;;9.55;4.60;;;;;;;10.27;100.00;99388.09;15269014;19;20010;-58
2022/10/27 05:26:53;;;;;;;9.20;5.07;;;;;;;10.30;100.00;99395.88;15275385;19;20045;-58
2022/10/27 05:32:17;;;;;;;9.52;5.22;;;;;;;10.29;100.00;99405.81;15271393;19;20098;-55
2022/10/27 05:37:54;;;;;;;8.75;5.20;;;;;;;10.29;100.00;99403.13;15270355;19;20014;-55
2022/10/27 05:43:19;;;;;;;10.50;5.57;;;;;;;10.29;100.00;99415.75;15260754;19;20022;-55
2022/10/27 05:48:43;;;;;;;11.43;5.63;;;;;;;10.25;100.00;99417.00;15270959;19;20019;-57
2022/10/27 05:54:11;;;;;;;10.35;5.40;;;;;;;10.22;100.00;99414.56;15266870;19;20019;-59
2022/10/27 05:59:35;;;;;;;11.85;5.68;;;;;;;10.15;100.00;99415.13;15269969;19;20034;-56
2022/10/27 06:05:00;;;;;;;9.15;5.75;;;;;;;10.11;100.00;99416.38;15272347;19;20038;-57
2022/10/27 06:10:28;;;;;;;14.60;6.53;;;;;;;10.09;100.00;99425.56;15267238;19;20022;-55
2022/10/27 06:15:53;;;;;;;12.63;7.28;;;;;;;10.09;100.00;99429.09;14754505;19;10000549;-56
2022/10/27 06:21:17;;;;;;;9.80;5.70;;;;;;;10.04;100.00;99434.06;15268188;19;20017;-54
2022/10/27 06:26:45;;;;;;;11.20;5.90;;;;;;;10.01;100.00;99426.22;15273906;19;20039;-58
2022/10/27 06:32:12;;;;;;;8.50;5.57;;;;;;;9.97;100.00;99438.25;15270223;19;20029;-54
2022/10/27 06:37:45;;;;;;;9.73;5.50;;;;;;;9.96;100.00;99441.91;15268563;19;20025;-63
2022/10/27 06:43:14;;;;;;;8.05;5.15;;;;;;;9.94;100.00;99449.28;15262567;19;20531;-61
2022/10/27 06:48:39;;;;;;;7.03;4.75;;;;;;;9.94;100.00;99449.28;15263313;19;20599;-60
2022/10/27 06:54:03;;;;;;;12.50;5.40;;;;;;;9.94;100.00;99451.97;15265220;19;20019;-62
2022/10/27 06:59:31;;;;;;;11.18;5.90;;;;;;;9.96;100.00;99455.38;15269718;19;20492;-62
2022/10/27 07:04:55;;;;;;;9.43;5.78;;;;;;;10.03;100.00;99470.03;15270981;19;20110;-61
2022/10/27 07:10:19;;;;;;;8.82;5.53;;;;;;;10.09;100.00;99479.44;15266781;19;20033;-61
2022/10/27 07:15:48;;;;;;;11.88;5.95;;;;;;;10.16;100.00;99476.09;15264576;19;20050;-61
2022/10/27 07:21:13;;;;;;;10.02;5.63;;;;;;;10.24;100.00;99479.94;15250171;19;20389;-59
2022/10/27 07:26:38;;;;;;;8.18;4.80;;;;;;;10.38;100.00;99484.16;15267282;19;20009;-62
2022/10/27 07:32:05;;;;;;;9.43;5.80;;;;;;;10.44;100.00;99492.53;15262703;19;20492;-63
2022/10/27 07:37:36;;;;;;;9.25;5.05;;;;;;;10.53;100.00;99490.03;15268575;19;20014;-60
2022/10/27 07:43:03;;;;;;;7.97;5.10;;;;;;;10.63;100.00;99488.25;15266893;19;20014;-61
2022/10/27 07:48:29;;;;;;;9.68;4.75;;;;;;;10.76;100.00;99498.78;15254757;19;20010;-61
2022/10/27 07:53:54;;;;;;;6.70;4.45;;;;;;;10.89;100.00;99493.16;15255550;19;20065;-62
2022/10/27 07:59:18;;;;;;;7.22;4.10;;;;;;;11.00;100.00;99506.53;15262873;19;20043;-62
2022/10/27 08:25:23;;;;;;;4.40;2.10;;;;;;;11.57;100.00;99506.78;15363324;19;20410;-63
2022/10/27 08:30:47;;;;;;;3.75;2.17;;;;;;;11.76;100.00;99512.34;15367767;19;20018;-63
2022/10/27 08:36:14;;;;;;;3.00;1.80;;;;;;;11.88;100.00;99511.19;15367916;19;20014;-63
2022/10/27 08:41:52;;;;;;;5.53;1.55;;;;;;;12.03;100.00;99490.03;15356037;19;20043;-62
2022/10/27 08:47:23;;;;;;;2.42;1.70;;;;;;;12.19;100.00;99481.31;15362615;19;20022;-54
2022/10/27 08:52:51;;;;;;;3.08;1.77;;;;;;;12.33;100.00;99480.88;15346265;19;20022;-58
2022/10/27 08:58:27;;;;;;;4.70;1.60;;;;;;;12.51;100.00;99485.53;15344238;19;20451;-60
2022/10/27 09:04:18;;;;;;;5.95;1.70;;;;;;;12.70;100.00;99472.91;15337471;19;20038;-57
2022/10/27 09:09:54;;;;;;;2.88;1.55;;;;;;;12.85;100.00;99468.72;15338764;19;20022;-64
2022/10/27 09:15:34;;;;;;;3.65;1.88;;;;;;;13.08;100.00;99455.63;15343983;19;20014;-54
2022/10/27 09:21:02;;;;;;;5.87;1.70;;;;;;;13.28;100.00;99454.63;15330582;19;20014;-66
2022/10/27 09:26:31;;;;;;;5.95;2.10;;;;;;;13.44;100.00;99446.72;15275078;19;20612;-62
2022/10/27 09:32:02;;;;;;;5.45;1.63;;;;;;;13.64;100.00;99416.78;15276305;19;20023;-59
2022/10/27 09:37:30;;;;;;;5.43;1.50;;;;;;;13.81;100.00;99429.44;15275961;19;20011;-63
2022/10/27 09:42:58;;;;;;;3.70;1.45;;;;;;;13.95;100.00;99419.03;15278605;19;20019;-65
2022/10/27 09:48:28;;;;;;;4.13;1.50;;;;;;;14.15;100.00;99414.25;15281651;19;20551;-56
2022/10/27 09:53:56;;;;;;;3.95;1.38;;;;;;;14.34;100.00;99413.19;15277254;19;20010;-58
2022/10/27 09:59:31;;;;;;;2.15;1.20;;;;;;;14.51;100.00;99397.84;15279656;19;20018;-59
2022/10/27 10:05:00;;;;;;;2.95;1.10;;;;;;;14.75;100.00;99397.13;15284509;19;20250;-60
2022/10/27 10:10:31;;;;;;;2.45;1.13;;;;;;;14.93;100.00;99394.28;15275956;19;20039;-64
2022/10/27 10:16:09;;;;;;;2.80;1.10;;;;;;;15.16;100.00;99384.66;15280471;19;20025;-64
2022/10/27 10:21:52;;;;;;;2.00;1.10;;;;;;;15.35;100.00;99381.63;15274134;19;20213;-62
2022/10/27 10:27:28;;;;;;;1.83;1.10;;;;;;;15.59;100.00;99377.22;15277680;19;20014;-63
2022/10/27 10:32:56;;;;;;;2.00;0.90;;;;;;;15.89;100.00;99377.56;15273294;19;20132;-58
2022/10/27 10:38:38;;;;;;;3.97;1.13;;;;;;;16.00;100.00;99355.47;15275201;19;20018;-59
2022/10/27 10:44:17;;;;;;;2.22;1.02;;;;;;;16.19;100.00;99356.09;15266416;19;20022;-58
2022/10/27 10:49:50;;;;;;;3.72;1.02;;;;;;;16.42;100.00;99360.75;15274659;19;20033;-59
2022/10/27 10:55:27;;;;;;;3.55;0.93;;;;;;;16.58;100.00;99347.09;15276980;19;20467;-62
2022/10/27 11:01:04;;;;;;;2.42;0.82;;;;;;;16.94;100.00;99324.81;15275468;19;20101;-57
2022/10/27 11:06:28;;;;;;;3.75;0.90;;;;;;;17.19;100.00;99321.91;15277526;19;20521;-62
2022/10/27 11:11:57;;;;;;;1.83;0.90;;;;;;;17.41;100.00;99306.56;15273832;19;20021;-58
2022/10/27 11:17:25;;;;;;;1.40;0.70;;;;;;;17.61;100.00;99302.47;15275862;19;20029;-58
2022/10/27 11:22:49;;;;;;;1.85;0.80;;;;;;;17.79;100.00;99288.50;15270826;19;20019;-65
2022/10/27 11:28:23;;;;;;;1.10;0.70;;;;;;;17.94;100.00;99283.03;15273145;19;20019;-60
2022/10/27 11:33:55;;;;;;;3.80;0.60;;;;;;;18.17;100.00;99275.63;15269052;19;20018;-63
2022/10/27 11:39:23;;;;;;;1.48;0.77;;;;;;;18.32;100.00;99255.69;15272965;19;20754;-57
2022/10/27 11:45:03;;;;;;;2.38;0.60;;;;;;;18.52;100.00;99258.66;15272535;19;20035;-62
2022/10/27 11:50:32;;;;;;;3.22;0.80;;;;;;;18.68;100.00;99254.81;15274474;19;20740;-54
2022/10/27 11:56:15;;;;;;;1.17;0.52;;;;;;;18.86;100.00;99250.81;15274060;19;20015;-59
2022/10/27 12:01:52;;;;;;;1.58;0.80;;;;;;;18.98;100.00;99249.28;15265501;19;20022;-65
2022/10/27 12:07:24;;;;;;;1.58;0.60;;;;;;;19.12;100.00;99243.94;15265384;19;20025;-61
2022/10/27 12:12:52;;;;;;;2.58;0.80;;;;;;;19.25;100.00;99241.31;15271004;19;20022;-60
2022/10/27 12:18:24;;;;;;;0.90;0.55;;;;;;;19.45;100.00;99246.09;15266339;19;20022;-61
2022/10/27 12:24:02;;;;;;;1.13;0.60;;;;;;;19.52;100.00;99230.59;15265350;19;20022;-61
2022/10/27 12:29:36;;;;;;;1.02;0.40;;;;;;;19.66;100.00;99232.38;15269295;19;20014;-59
2022/10/27 12:35:09;;;;;;;0.95;0.50;;;;;;;19.88;100.00;99228.72;15267814;19;20022;-63
2022/10/27 12:40:40;;;;;;;2.53;0.60;;;;;;;20.11;100.00;99225.69;15264653;19;20025;-58
2022/10/27 12:46:18;;;;;;;1.35;0.60;;;;;;;20.26;100.00;99220.91;15270534;19;20400;-56
2022/10/27 12:51:53;;;;;;;2.15;0.70;;;;;;;20.24;100.00;99219.41;15263075;19;20021;-63
2022/10/27 12:57:30;;;;;;;1.60;0.57;;;;;;;20.37;100.00;99213.16;15265772;19;20071;-60
2022/10/27 13:03:22;;;;;;;3.08;0.73;;;;;;;20.50;100.00;99213.19;15281163;19;20377;-60
2022/10/27 13:09:17;;;;;;;1.60;0.60;;;;;;;20.83;100.00;99206.97;15285269;19;20032;-59
2022/10/27 13:15:16;;;;;;;1.30;0.60;;;;;;;20.97;100.00;99196.03;15278118;19;20518;-61
2022/10/27 13:21:05;;;;;;;3.40;0.70;;;;;;;21.05;100.00;99188.41;15282475;19;20017;-57
2022/10/27 13:26:38;;;;;;;1.60;0.60;;;;;;;21.09;100.00;99167.78;15284893;19;20025;-65
2022/10/27 13:32:36;;;;;;;3.63;0.70;;;;;;;21.31;100.00;99166.72;15276116;19;20022;-63
2022/10/27 13:38:20;;;;;;;1.70;0.60;;;;;;;21.44;100.00;99163.94;15276003;19;20329;-65
2022/10/27 13:43:54;;;;;;;1.80;0.60;;;;;;;21.61;100.00;99158.00;15276080;19;20015;-66
2022/10/27 13:49:51;;;;;;;2.72;0.55;;;;;;;21.70;100.00;99162.19;15275162;19;20475;-66
2022/10/27 13:55:46;;;;;;;3.42;0.57;;;;;;;21.83;100.00;99156.66;15279586;19;20019;-64
2022/10/27 14:01:33;;;;;;;1.17;0.50;;;;;;;22.04;100.00;99145.63;15272834;19;20476;-64
2022/10/27 14:07:07;;;;;;;5.65;0.77;;;;;;;22.20;100.00;99155.25;15274999;19;20015;-63
2022/10/27 14:12:35;;;;;;;1.38;0.70;;;;;;;22.23;100.00;99149.31;15273389;19;20021;-62
2022/10/27 14:18:04;;;;;;;2.30;0.80;;;;;;;22.37;100.00;99150.94;15273754;19;20475;-61
2022/10/27 14:23:36;;;;;;;1.95;0.60;;;;;;;22.52;100.00;99158.06;15274138;19;20029;-62
2022/10/27 14:29:01;;;;;;;2.83;0.50;;;;;;;22.55;100.00;99152.09;15280684;19;20021;-62
2022/10/27 14:34:30;;;;;;;1.75;0.50;;;;;;;22.52;100.00;99153.41;15276051;19;20465;-63
2022/10/27 14:39:57;;;;;;;0.80;0.50;;;;;;;22.32;100.00;99148.00;15273259;19;20621;-63
2022/10/27 14:45:25;;;;;;;1.40;0.60;;;;;;;22.16;100.00;99146.59;15280226;19;20026;-63
2022/10/27 14:50:53;;;;;;;2.33;0.68;;;;;;;21.95;100.00;99145.00;15271601;19;20017;-63
2022/10/27 14:56:26;;;;;;;23.58;1.38;;;;;;;21.73;100.00;99139.84;15279024;19;20022;-59
2022/10/27 15:01:51;;;;;;;3.25;0.98;;;;;;;21.53;100.00;99140.72;15273231;19;20025;-63
2022/10/27 15:07:24;;;;;;;2.97;0.85;;;;;;;21.15;100.00;99141.41;15269881;19;20339;-63
2022/10/27 15:12:55;;;;;;;1.95;0.80;;;;;;;21.03;100.00;99140.38;15271925;19;20026;-64
2022/10/27 15:18:29;;;;;;;1.85;0.70;;;;;;;20.79;100.00;99134.47;15276855;19;20018;-63
2022/10/27 15:24:02;;;;;;;2.47;0.70;;;;;;;20.48;100.00;99128.53;15267941;19;20013;-63
2022/10/27 15:29:29;;;;;;;3.58;0.90;;;;;;;20.02;100.00;99124.66;15275201;19;20423;-61
2022/10/27 15:34:53;;;;;;;1.65;0.80;;;;;;;19.74;100.00;99121.16;15271753;19;20030;-63
2022/10/27 15:40:43;;;;;;;2.17;0.90;;;;;;;19.40;100.00;99123.75;15241215;19;20030;-62
2022/10/27 15:46:28;;;;;;;2.47;0.88;;;;;;;19.15;100.00;99115.16;15272437;19;20025;-63
2022/10/27 15:51:57;;;;;;;3.20;0.90;;;;;;;18.95;100.00;99113.16;15241825;19;20491;-62
2022/10/27 15:57:37;;;;;;;1.90;0.82;;;;;;;18.70;100.00;99121.75;15277595;19;20073;-63
2022/10/27 16:03:04;;;;;;;1.75;1.05;;;;;;;18.42;100.00;99119.81;15273509;19;20025;-62
2022/10/27 16:08:42;;;;;;;4.22;1.10;;;;;;;18.11;100.00;99109.22;15269297;19;20025;-61
2022/10/27 16:14:12;;;;;;;3.45;1.08;;;;;;;17.95;100.00;99118.44;15269697;19;20031;-62
2022/10/27 16:19:37;;;;;;;2.42;1.10;;;;;;;17.83;100.00;99124.38;15268294;19;20019;-63
2022/10/27 16:25:01;;;;;;;2.15;1.00;;;;;;;17.69;100.00;99122.56;15268581;19;20010;-62
2022/10/27 16:30:28;;;;;;;3.00;1.05;;;;;;;17.52;100.00;99114.56;15266725;19;20023;-62
2022/10/27 16:35:53;;;;;;;2.38;1.08;;;;;;;17.32;100.00;99113.47;15279492;19;20022;-62
2022/10/27 16:41:25;;;;;;;2.75;1.10;;;;;;;17.08;100.00;99121.72;15279505;19;20014;-62
2022/10/27 16:46:53;;;;;;;2.10;0.90;;;;;;;16.99;100.00;99122.00;15289620;19;20038;-60
2022/10/27 16:52:18;;;;;;;4.65;1.35;;;;;;;16.85;100.00;99129.91;15287166;19;20384;-61
2022/10/27 16:57:43;;;;;;;2.65;1.33;;;;;;;16.75;100.00;99129.34;15288170;19;20372;-60
2022/10/27 17:03:11;;;;;;;2.15;1.15;;;;;;;16.69;100.00;99124.63;15284497;19;20002;-62
2022/10/27 17:08:36;;;;;;;2.28;1.10;;;;;;;16.63;100.00;99120.75;15288190;19;20027;-61
2022/10/27 17:14:01;;;;;;;2.47;1.00;;;;;;;16.57;100.00;99130.50;15279647;19;20418;-62
2022/10/27 17:19:28;;;;;;;3.03;1.20;;;;;;;16.44;100.00;99127.53;15285135;19;20014;-61
2022/10/27 17:24:59;;;;;;;3.00;1.15;;;;;;;16.35;100.00;99134.91;15278242;19;20360;-61
2022/10/27 17:30:24;;;;;;;2.78;1.00;;;;;;;16.30;100.00;99118.31;15288177;19;20018;-62
2022/10/27 17:35:51;;;;;;;2.78;1.00;;;;;;;16.24;100.00;99117.16;15282209;19;20025;-62
2022/10/27 17:41:16;;;;;;;3.00;1.20;;;;;;;16.20;100.00;99123.97;15279205;19;20018;-62
2022/10/27 17:46:40;;;;;;;3.63;1.40;;;;;;;16.18;100.00;99128.72;15281640;19;20542;-62
2022/10/27 17:52:07;;;;;;;2.40;1.25;;;;;;;16.16;100.00;99122.66;15280493;19;20467;-61
2022/10/27 17:57:32;;;;;;;4.55;1.40;;;;;;;16.17;100.00;99116.16;15281240;19;20025;-60
2022/10/27 18:02:57;;;;;;;4.15;1.23;;;;;;;16.21;100.00;99122.13;15277727;19;20018;-60
2022/10/27 18:08:24;;;;;;;5.50;1.42;;;;;;;16.17;100.00;99111.59;15280609;19;20023;-59
2022/10/27 18:13:51;;;;;;;4.28;1.77;;;;;;;16.15;100.00;99110.09;15271688;19;20015;-62
2022/10/27 18:19:22;;;;;;;4.05;1.42;;;;;;;16.09;100.00;99108.06;15274480;19;20029;-62
2022/10/27 18:24:58;;;;;;;4.13;1.40;;;;;;;16.02;100.00;99103.38;15272955;19;20054;-61
2022/10/27 18:30:23;;;;;;;5.97;1.40;;;;;;;15.95;100.00;99118.69;15278573;19;20014;-59
2022/10/27 18:35:47;;;;;;;4.03;1.40;;;;;;;15.91;100.00;99106.50;15274124;19;20017;-59
2022/10/27 18:41:18;;;;;;;3.30;1.50;;;;;;;15.77;100.00;99120.81;15268709;19;20344;-59
2022/10/27 18:46:43;;;;;;;5.28;1.83;;;;;;;15.70;100.00;99124.22;15280318;19;20022;-61
2022/10/27 18:52:08;;;;;;;3.78;1.60;;;;;;;15.68;100.00;99118.13;15275208;19;20025;-60
2022/10/27 18:57:35;;;;;;;7.22;1.50;;;;;;;15.66;100.00;99128.34;15273965;19;20022;-60
2022/10/27 19:03:00;;;;;;;4.60;1.52;;;;;;;15.61;100.00;99125.28;15273746;19;20038;-61
2022/10/27 19:08:32;;;;;;;4.28;1.45;;;;;;;15.60;100.00;99130.91;15277799;19;20015;-62
2022/10/27 19:14:01;;;;;;;4.80;1.70;;;;;;;15.55;100.00;99131.44;15270827;19;20038;-61
2022/10/27 19:19:26;;;;;;;4.32;1.48;;;;;;;15.47;100.00;99137.75;15268875;19;20025;-63
2022/10/27 19:24:58;;;;;;;4.22;1.42;;;;;;;15.54;100.00;99135.19;15266760;19;20026;-62
2022/10/27 19:30:25;;;;;;;4.38;1.80;;;;;;;15.51;100.00;99143.66;15270710;19;20542;-62
2022/10/27 19:35:50;;;;;;;4.70;1.40;;;;;;;15.49;100.00;99134.84;15270440;19;20025;-59
2022/10/27 19:41:16;;;;;;;3.63;1.58;;;;;;;15.45;100.00;99128.09;15275244;19;20537;-59
2022/10/27 19:46:44;;;;;;;4.40;1.80;;;;;;;15.41;100.00;99133.00;15276701;19;20017;-57
2022/10/27 19:52:09;;;;;;;4.90;1.60;;;;;;;15.40;100.00;99132.16;15272982;19;20485;-59
2022/10/27 19:57:33;;;;;;;3.78;1.60;;;;;;;15.40;100.00;99134.88;15271384;19;20014;-60
2022/10/27 20:03:07;;;;;;;6.03;1.80;;;;;;;15.40;100.00;99139.47;15270456;19;20022;-59
2022/10/27 20:08:34;;;;;;;5.80;1.55;;;;;;;15.39;100.00;99124.22;15273606;19;20022;-57
2022/10/27 20:13:58;;;;;;;3.85;1.73;;;;;;;15.44;100.00;99134.53;15270379;19;20402;-61
2022/10/27 20:19:25;;;;;;;3.65;1.58;;;;;;;15.45;100.00;99134.34;15273151;19;20021;-58
2022/10/27 20:24:54;;;;;;;3.83;1.73;;;;;;;15.49;100.00;99129.41;15256474;19;20363;-57
2022/10/27 20:30:19;;;;;;;9.45;2.10;;;;;;;15.45;100.00;99123.50;15258138;19;20033;-57
2022/10/27 20:35:46;;;;;;;5.50;1.50;;;;;;;15.52;100.00;99124.47;15263204;19;20022;-58
2022/10/27 20:41:12;;;;;;;4.07;1.52;;;;;;;15.58;100.00;99133.81;15271949;19;20021;-59
2022/10/27 20:46:39;;;;;;;5.53;1.70;;;;;;;15.55;100.00;99126.84;15269737;19;20372;-56
2022/10/27 20:52:06;;;;;;;3.58;1.55;;;;;;;15.62;100.00;99123.44;15270259;19;20022;-59
2022/10/27 20:57:31;;;;;;;4.07;1.55;;;;;;;15.65;100.00;99118.50;15268232;19;20011;-59
2022/10/27 21:02:56;;;;;;;3.78;1.58;;;;;;;15.61;100.00;99113.59;15263853;19;20015;-58
2022/10/27 21:08:23;;;;;;;5.03;1.50;;;;;;;15.65;100.00;99113.06;15268444;19;20018;-56
2022/10/27 21:13:50;;;;;;;4.60;1.50;;;;;;;15.65;100.00;99104.03;15265015;19;20489;-57
2022/10/27 21:19:16;;;;;;;3.90;1.45;;;;;;;15.68;100.00;99104.56;15268694;19;20025;-57
2022/10/27 21:24:43;;;;;;;9.50;1.80;;;;;;;15.63;100.00;99093.38;15283389;19;20035;-56
2022/10/27 21:30:08;;;;;;;4.75;1.60;;;;;;;15.62;100.00;99088.13;15282679;19;20238;-57
2022/10/27 21:35:34;;;;;;;7.40;1.70;;;;;;;15.57;100.00;99088.66;15280408;19;20368;-58
2022/10/27 21:41:05;;;;;;;4.82;1.40;;;;;;;15.53;100.00;99081.88;15281392;19;20040;-57
2022/10/27 21:46:31;;;;;;;2.53;1.30;;;;;;;15.48;100.00;99090.56;15280015;19;20074;-54
2022/10/27 21:51:55;;;;;;;5.30;1.50;;;;;;;15.43;100.00;99092.09;15280148;19;20364;-56
2022/10/27 21:57:23;;;;;;;6.68;1.75;;;;;;;15.45;100.00;99100.94;15275076;19;20493;-58
2022/10/27 22:02:47;;;;;;;4.25;1.50;;;;;;;15.43;100.00;99092.09;15278559;19;20015;-55
2022/10/27 22:08:12;;;;;;;4.60;1.45;;;;;;;15.38;100.00;99104.34;15276942;19;20014;-55
2022/10/27 22:13:39;;;;;;;4.75;1.42;;;;;;;15.38;100.00;99100.78;15278943;19;20014;-55
2022/10/27 22:19:06;;;;;;;5.10;1.40;;;;;;;15.40;100.00;99083.28;15275326;19;20367;-55
2022/10/27 22:24:30;;;;;;;3.40;1.38;;;;;;;15.45;100.00;99092.78;15278140;19;20356;-57
2022/10/27 22:29:57;;;;;;;6.95;1.50;;;;;;;15.41;100.00;99074.13;15278976;19;20491;-52
2022/10/27 22:35:23;;;;;;;4.18;1.45;;;;;;;15.46;100.00;99070.88;15277554;19;20467;-60
2022/10/27 22:40:50;;;;;;;3.78;1.50;;;;;;;15.42;100.00;99074.97;15277974;19;20413;-58
2022/10/27 22:46:23;;;;;;;3.63;1.25;;;;;;;15.39;100.00;99062.59;15276098;19;20030;-55
2022/10/27 22:51:48;;;;;;;3.70;1.38;;;;;;;15.40;100.00;99069.72;15278329;19;20018;-60
2022/10/27 22:57:13;;;;;;;4.38;1.30;;;;;;;15.37;100.00;99070.06;15272706;19;20475;-57
2022/10/27 23:02:40;;;;;;;2.80;1.40;;;;;;;15.40;100.00;99061.56;15277035;19;20074;-57
2022/10/27 23:08:05;;;;;;;4.05;1.40;;;;;;;15.48;100.00;99059.81;15274137;19;20041;-56
2022/10/27 23:13:33;;;;;;;2.78;1.33;;;;;;;15.53;100.00;99076.44;15274506;19;20454;-54
2022/10/27 23:19:01;;;;;;;5.85;1.50;;;;;;;15.54;100.00;99078.13;15273666;19;20070;-57
2022/10/27 23:24:26;;;;;;;2.83;1.08;;;;;;;15.60;100.00;99054.84;15272981;19;20023;-58
2022/10/27 23:29:57;;;;;;;4.95;1.60;;;;;;;15.63;100.00;99051.78;15277935;19;20082;-58
2022/10/27 23:35:25;;;;;;;6.20;1.48;;;;;;;15.74;100.00;99053.25;15271959;19;20018;-58
2022/10/27 23:40:57;;;;;;;4.80;1.40;;;;;;;15.78;100.00;99058.13;15273174;19;20018;-58
2022/10/27 23:46:23;;;;;;;4.22;1.30;;;;;;;15.88;100.00;99060.66;15272832;19;20025;-56
2022/10/27 23:51:50;;;;;;;4.72;1.50;;;;;;;15.91;100.00;99063.03;15277585;19;20471;-57
2022/10/27 23:57:15;;;;;;;3.83;1.30;;;;;;;15.93;100.00;99052.81;15269955;19;20029;-56
